Time;durP1;ratioP1;P1;durP2;ratioP2;P2;SDS_P1;SDS_P2;PMS_P1;PMS_P2;Temp;Humidity;BMP_temperature;BMP_pressure;BME280_temperature;BME280_humidity;BME280_pressure;Samples;Min_cycle;Max_cycle;Signal;HPM_P1;HPM_P2
2023/08/19 00:00:50;;;;;;;;;;;21.60;91.30;;;;;;4976672;28;19965;-82
2023/08/19 00:03:15;;;;;;;;;;;21.60;91.40;;;;;;4977045;28;19925;-83
2023/08/19 00:05:41;;;;;;;;;;;21.60;91.50;;;;;;4975316;28;19946;-84
2023/08/19 00:08:06;;;;;;;;;;;21.60;91.50;;;;;;4966859;28;19918;-83
2023/08/19 00:10:32;;;;;;;;;;;21.50;91.40;;;;;;4974866;28;19961;-83
2023/08/19 00:12:57;;;;;;;;;;;21.50;91.40;;;;;;4973484;28;19925;-82
2023/08/19 00:15:23;;;;;;;;;;;21.50;91.50;;;;;;4973203;28;19914;-83
2023/08/19 00:17:48;;;;;;;;;;;21.50;91.50;;;;;;4975419;28;19918;-83
2023/08/19 00:20:14;;;;;;;;;;;21.50;91.50;;;;;;4976390;28;19917;-83
2023/08/19 00:22:39;;;;;;;;;;;21.50;91.50;;;;;;4974104;28;20016;-83
2023/08/19 00:25:05;;;;;;;;;;;21.40;91.50;;;;;;4976538;28;19910;-83
2023/08/19 00:27:31;;;;;;;;;;;21.40;91.50;;;;;;4973397;28;19914;-83
2023/08/19 00:29:56;;;;;;;;;;;21.30;91.50;;;;;;4972024;28;19918;-83
2023/08/19 00:32:21;;;;;;;;;;;21.40;91.40;;;;;;4974094;28;20371;-83
2023/08/19 00:34:47;;;;;;;;;;;21.30;91.40;;;;;;4975794;28;19910;-83
2023/08/19 00:37:13;;;;;;;;;;;21.30;91.40;;;;;;4973095;28;19914;-83
2023/08/19 00:39:38;;;;;;;;;;;21.30;91.40;;;;;;4969064;28;19914;-83
2023/08/19 00:42:04;;;;;;;;;;;21.30;91.40;;;;;;4971173;28;19985;-83
2023/08/19 00:44:33;;;;;;;;;;;21.30;91.50;;;;;;4974743;28;19914;-83
2023/08/19 00:47:01;;;;;;;;;;;21.20;91.40;;;;;;4972689;28;20433;-83
2023/08/19 00:49:27;;;;;;;;;;;21.20;91.40;;;;;;4971575;28;19926;-83
2023/08/19 00:51:52;;;;;;;;;;;21.20;91.50;;;;;;4971764;28;19910;-83
2023/08/19 00:54:18;;;;;;;;;;;21.20;91.40;;;;;;4969613;28;19918;-83
2023/08/19 00:56:43;;;;;;;;;;;21.20;91.40;;;;;;4973031;28;20305;-82
2023/08/19 00:59:09;;;;;;;;;;;21.20;91.30;;;;;;4975929;28;19910;-83
2023/08/19 01:01:34;;;;;;;;;;;21.20;91.40;;;;;;4973838;28;20037;-82
2023/08/19 01:04:00;;;;;;;;;;;21.10;91.30;;;;;;4973989;28;19961;-83
2023/08/19 01:06:29;;;;;;;;;;;21.10;91.30;;;;;;4974258;28;19922;-83
2023/08/19 01:09:07;;;;;;;;;;;21.10;91.30;;;;;;4974387;28;19960;-83
2023/08/19 01:11:59;;;;;;;;;;;21.10;91.20;;;;;;4979592;28;19956;-83
2023/08/19 01:14:25;;;;;;;;;;;21.10;91.20;;;;;;4962095;28;19914;-83
2023/08/19 01:16:52;;;;;;;;;;;21.00;91.20;;;;;;4990565;28;19960;-83
2023/08/19 01:19:29;;;;;;;;;;;21.00;91.20;;;;;;4983490;28;19969;-83
2023/08/19 01:21:57;;;;;;;;;;;21.00;91.10;;;;;;4978285;28;20415;-82
2023/08/19 01:24:24;;;;;;;;;;;21.00;91.10;;;;;;4979395;28;19918;-82
2023/08/19 01:26:50;;;;;;;;;;;21.00;91.20;;;;;;4973863;28;19917;-83
2023/08/19 01:29:15;;;;;;;;;;;21.00;91.10;;;;;;4972561;28;19914;-84
2023/08/19 01:31:41;;;;;;;;;;;21.00;91.10;;;;;;4978096;28;20338;-83
2023/08/19 01:34:06;;;;;;;;;;;20.90;91.10;;;;;;4976484;28;19997;-83
2023/08/19 01:36:35;;;;;;;;;;;20.90;91.10;;;;;;4974904;28;19915;-84
2023/08/19 01:39:02;;;;;;;;;;;20.90;91.00;;;;;;4960964;28;19957;-84
2023/08/19 01:41:28;;;;;;;;;;;20.90;91.00;;;;;;4976364;28;19918;-83
2023/08/19 01:43:57;;;;;;;;;;;21.00;91.00;;;;;;4976763;28;19980;-82
2023/08/19 01:46:23;;;;;;;;;;;20.90;90.90;;;;;;4973541;28;19913;-82
2023/08/19 01:48:48;;;;;;;;;;;21.00;91.00;;;;;;4971080;28;20009;-82
2023/08/19 01:51:14;;;;;;;;;;;21.00;90.90;;;;;;4973477;28;19927;-83
2023/08/19 01:53:39;;;;;;;;;;;20.90;90.90;;;;;;4972094;28;20017;-83
2023/08/19 01:56:05;;;;;;;;;;;21.00;90.90;;;;;;4973758;28;20449;-83
2023/08/19 01:58:30;;;;;;;;;;;20.90;90.70;;;;;;4974102;28;19924;-83
2023/08/19 02:00:56;;;;;;;;;;;20.90;90.70;;;;;;4976404;28;19910;-83
2023/08/19 02:03:21;;;;;;;;;;;20.90;90.80;;;;;;4975366;28;19918;-83
2023/08/19 02:05:47;;;;;;;;;;;20.90;90.80;;;;;;4973927;28;19917;-83
2023/08/19 02:08:12;;;;;;;;;;;20.90;90.90;;;;;;4970693;28;19914;-83
2023/08/19 02:10:38;;;;;;;;;;;20.90;90.70;;;;;;5017216;23;19929;-80
2023/08/19 02:13:03;;;;;;;;;;;20.90;90.80;;;;;;5016526;28;19917;-80
2023/08/19 02:15:28;;;;;;;;;;;20.80;90.80;;;;;;5015013;28;19963;-81
2023/08/19 02:17:54;;;;;;;;;;;20.80;90.80;;;;;;5011136;28;19917;-82
2023/08/19 02:20:19;;;;;;;;;;;20.70;90.80;;;;;;5019733;28;20292;-80
2023/08/19 02:22:45;;;;;;;;;;;20.80;90.80;;;;;;5017519;28;19964;-83
2023/08/19 02:25:10;;;;;;;;;;;20.70;90.80;;;;;;5019764;28;19913;-82
2023/08/19 02:27:36;;;;;;;;;;;20.70;90.80;;;;;;5015943;28;19977;-80
2023/08/19 02:30:02;;;;;;;;;;;20.60;90.80;;;;;;5018320;28;19917;-80
2023/08/19 02:32:27;;;;;;;;;;;20.60;90.90;;;;;;5015432;28;19921;-81
2023/08/19 02:34:53;;;;;;;;;;;20.60;90.90;;;;;;5017136;28;19988;-82
2023/08/19 02:37:18;;;;;;;;;;;20.70;90.90;;;;;;5015299;28;19933;-82
2023/08/19 02:39:44;;;;;;;;;;;20.60;91.00;;;;;;5016947;28;19914;-81
2023/08/19 02:42:11;;;;;;;;;;;20.60;90.90;;;;;;5018488;28;19961;-83
2023/08/19 02:44:37;;;;;;;;;;;20.50;91.00;;;;;;5017236;28;19969;-82
2023/08/19 02:47:02;;;;;;;;;;;20.50;91.10;;;;;;5013070;28;20357;-82
2023/08/19 02:49:28;;;;;;;;;;;20.50;91.00;;;;;;5015290;28;20459;-79
2023/08/19 02:51:53;;;;;;;;;;;20.50;90.90;;;;;;5013086;28;19964;-82
2023/08/19 02:54:19;;;;;;;;;;;20.50;90.90;;;;;;5014132;28;20547;-81
2023/08/19 02:56:45;;;;;;;;;;;20.50;91.00;;;;;;5015020;28;19909;-81
2023/08/19 02:59:11;;;;;;;;;;;20.50;91.10;;;;;;5013707;28;19972;-82
2023/08/19 03:01:36;;;;;;;;;;;20.50;91.10;;;;;;5013999;28;19975;-81
2023/08/19 03:04:02;;;;;;;;;;;20.50;91.10;;;;;;5013542;28;19913;-82
2023/08/19 03:06:27;;;;;;;;;;;20.40;91.10;;;;;;5011621;28;20424;-82
2023/08/19 03:08:53;;;;;;;;;;;20.40;91.10;;;;;;5012716;28;20006;-81
2023/08/19 03:11:18;;;;;;;;;;;20.40;91.20;;;;;;5008948;28;20270;-79
2023/08/19 03:13:44;;;;;;;;;;;20.40;91.10;;;;;;5014407;28;19916;-82
2023/08/19 03:16:09;;;;;;;;;;;20.40;91.10;;;;;;5000300;23;19994;-87
2023/08/19 03:18:35;;;;;;;;;;;20.30;91.20;;;;;;4988113;28;20411;-86
2023/08/19 03:21:00;;;;;;;;;;;20.30;91.10;;;;;;4989539;28;19921;-90
2023/08/19 03:23:26;;;;;;;;;;;20.30;91.10;;;;;;4994230;28;19922;-87
2023/08/19 03:25:52;;;;;;;;;;;20.30;91.20;;;;;;4989733;28;19914;-86
2023/08/19 03:28:18;;;;;;;;;;;20.30;91.10;;;;;;4997348;28;19921;-87
2023/08/19 03:30:43;;;;;;;;;;;20.20;91.10;;;;;;4989718;28;20372;-87
2023/08/19 03:33:08;;;;;;;;;;;20.30;91.20;;;;;;4984920;28;19910;-86
2023/08/19 03:35:34;;;;;;;;;;;20.30;91.10;;;;;;4992815;28;19964;-86
2023/08/19 03:38:00;;;;;;;;;;;20.20;91.10;;;;;;4984227;28;19989;-87
2023/08/19 03:40:26;;;;;;;;;;;20.20;91.10;;;;;;4983427;28;19941;-87
2023/08/19 03:42:51;;;;;;;;;;;20.20;91.20;;;;;;4984411;28;20023;-86
2023/08/19 03:45:16;;;;;;;;;;;20.20;91.00;;;;;;4994714;28;19919;-87
2023/08/19 03:47:42;;;;;;;;;;;20.20;91.00;;;;;;4976981;28;20295;-86
2023/08/19 03:50:07;;;;;;;;;;;20.20;91.20;;;;;;4979078;28;19941;-87
2023/08/19 03:52:33;;;;;;;;;;;20.20;91.20;;;;;;4978671;28;19929;-86
2023/08/19 03:54:58;;;;;;;;;;;20.20;91.20;;;;;;4983300;28;19966;-87
2023/08/19 03:57:24;;;;;;;;;;;20.10;91.20;;;;;;4982875;28;19914;-86
2023/08/19 03:59:50;;;;;;;;;;;20.10;91.20;;;;;;4985223;28;19914;-87
2023/08/19 04:02:16;;;;;;;;;;;20.20;91.10;;;;;;4984446;28;21867;-86
2023/08/19 04:04:55;;;;;;;;;;;20.20;91.10;;;;;;4992935;28;20004;-86
2023/08/19 04:07:21;;;;;;;;;;;20.10;91.00;;;;;;4988390;28;19965;-86
2023/08/19 04:09:46;;;;;;;;;;;20.10;91.10;;;;;;5007093;28;19913;-87
2023/08/19 04:12:11;;;;;;;;;;;20.10;91.10;;;;;;4989614;28;19961;-86
2023/08/19 04:14:37;;;;;;;;;;;20.10;91.10;;;;;;4978399;28;20455;-86
2023/08/19 04:17:02;;;;;;;;;;;20.10;91.10;;;;;;4992089;28;19989;-86
2023/08/19 04:19:28;;;;;;;;;;;20.00;91.30;;;;;;4988281;28;19914;-87
2023/08/19 04:21:53;;;;;;;;;;;20.10;91.30;;;;;;4988856;28;19967;-87
2023/08/19 04:24:19;;;;;;;;;;;20.10;91.30;;;;;;4979688;28;19930;-86
2023/08/19 04:26:44;;;;;;;;;;;20.10;91.30;;;;;;4985638;28;19937;-85
2023/08/19 04:29:10;;;;;;;;;;;20.10;91.30;;;;;;4982331;28;19926;-86
2023/08/19 04:31:35;;;;;;;;;;;20.20;91.20;;;;;;4984777;28;20407;-86
2023/08/19 04:34:01;;;;;;;;;;;20.30;91.20;;;;;;4992290;28;19909;-86
2023/08/19 04:36:26;;;;;;;;;;;20.30;91.10;;;;;;4988428;28;19914;-86
2023/08/19 04:38:51;;;;;;;;;;;20.30;91.10;;;;;;4984195;28;19965;-87
2023/08/19 04:41:17;;;;;;;;;;;20.30;91.00;;;;;;4986544;28;19914;-86
2023/08/19 04:43:42;;;;;;;;;;;20.40;91.00;;;;;;4980796;28;19914;-87
2023/08/19 04:46:08;;;;;;;;;;;20.40;91.00;;;;;;4974213;28;20376;-86
2023/08/19 04:48:33;;;;;;;;;;;20.40;90.90;;;;;;4988058;28;19910;-86
2023/08/19 04:51:00;;;;;;;;;;;20.40;90.90;;;;;;4985939;28;20016;-86
2023/08/19 04:53:25;;;;;;;;;;;20.40;91.00;;;;;;4986590;28;19910;-87
2023/08/19 04:56:02;;;;;;;;;;;20.40;90.90;;;;;;4988734;28;19910;-87
2023/08/19 04:58:27;;;;;;;;;;;20.40;91.00;;;;;;4990968;28;19985;-87
2023/08/19 05:00:53;;;;;;;;;;;20.50;91.00;;;;;;4996373;28;19991;-87
2023/08/19 05:03:18;;;;;;;;;;;20.50;90.90;;;;;;4989920;28;19977;-86
2023/08/19 05:05:44;;;;;;;;;;;20.60;90.90;;;;;;4982963;28;19913;-86
2023/08/19 05:08:10;;;;;;;;;;;20.60;90.80;;;;;;4986542;28;19917;-86
2023/08/19 05:10:36;;;;;;;;;;;20.60;90.80;;;;;;4988231;28;19992;-86
2023/08/19 05:13:02;;;;;;;;;;;20.60;90.80;;;;;;4985818;28;20020;-87
2023/08/19 05:15:27;;;;;;;;;;;20.60;90.80;;;;;;4986938;28;19918;-86
2023/08/19 05:17:53;;;;;;;;;;;20.60;90.80;;;;;;4990506;28;19997;-86
2023/08/19 05:20:18;;;;;;;;;;;20.70;90.80;;;;;;4979202;28;19918;-86
2023/08/19 05:22:44;;;;;;;;;;;20.80;90.80;;;;;;4988881;28;19952;-85
2023/08/19 05:25:09;;;;;;;;;;;20.80;90.80;;;;;;4986214;28;20027;-84
2023/08/19 05:27:35;;;;;;;;;;;21.00;90.80;;;;;;4972784;28;19942;-84
2023/08/19 05:30:01;;;;;;;;;;;21.00;90.80;;;;;;4983319;28;19910;-85
2023/08/19 05:32:26;;;;;;;;;;;21.10;90.70;;;;;;4992120;28;20439;-84
2023/08/19 05:34:52;;;;;;;;;;;21.10;90.60;;;;;;4993312;28;19925;-87
2023/08/19 05:37:17;;;;;;;;;;;21.20;90.60;;;;;;4995695;28;19909;-87
2023/08/19 05:39:43;;;;;;;;;;;21.30;90.60;;;;;;4987998;28;19917;-85
2023/08/19 05:42:09;;;;;;;;;;;21.40;90.50;;;;;;4988079;28;20372;-85
2023/08/19 05:44:34;;;;;;;;;;;21.40;90.40;;;;;;4996003;28;20307;-84
2023/08/19 05:47:00;;;;;;;;;;;21.50;90.40;;;;;;4977137;28;19914;-84
2023/08/19 05:49:25;;;;;;;;;;;21.60;90.30;;;;;;4984340;28;19918;-84
2023/08/19 05:51:51;;;;;;;;;;;21.60;90.00;;;;;;4991292;28;19994;-84
2023/08/19 05:54:16;;;;;;;;;;;21.70;90.00;;;;;;4976259;28;19917;-84
2023/08/19 05:56:42;;;;;;;;;;;21.80;89.50;;;;;;4991124;28;19918;-85
2023/08/19 05:59:07;;;;;;;;;;;21.80;89.20;;;;;;4984004;28;20318;-84
2023/08/19 06:01:33;;;;;;;;;;;21.90;89.10;;;;;;4986274;28;19914;-85
2023/08/19 06:04:00;;;;;;;;;;;22.00;88.90;;;;;;4993437;28;19917;-84
2023/08/19 06:06:26;;;;;;;;;;;22.10;88.30;;;;;;4985773;28;19918;-84
2023/08/19 06:08:51;;;;;;;;;;;22.10;88.10;;;;;;4984204;28;19964;-85
2023/08/19 06:11:17;;;;;;;;;;;22.20;87.90;;;;;;4999220;28;19914;-84
2023/08/19 06:13:42;;;;;;;;;;;22.20;87.80;;;;;;4989380;28;19917;-85
2023/08/19 06:16:08;;;;;;;;;;;22.30;87.70;;;;;;5004565;28;19961;-86
2023/08/19 06:18:33;;;;;;;;;;;22.30;87.40;;;;;;4990443;28;19985;-85
2023/08/19 06:20:59;;;;;;;;;;;22.30;87.10;;;;;;4991700;28;19914;-84
2023/08/19 06:23:25;;;;;;;;;;;22.30;87.20;;;;;;4975750;28;19918;-85
2023/08/19 06:25:51;;;;;;;;;;;22.50;87.20;;;;;;4985732;28;20395;-84
2023/08/19 06:28:18;;;;;;;;;;;22.50;87.10;;;;;;4994459;28;19920;-85
2023/08/19 06:30:43;;;;;;;;;;;22.60;86.90;;;;;;4987401;28;19914;-85
2023/08/19 06:33:09;;;;;;;;;;;22.70;86.80;;;;;;4998859;28;19913;-85
2023/08/19 06:35:35;;;;;;;;;;;22.70;86.70;;;;;;4999800;28;20335;-86
2023/08/19 06:38:13;;;;;;;;;;;22.70;86.80;;;;;;5002443;28;19918;-85
2023/08/19 06:40:40;;;;;;;;;;;22.80;86.90;;;;;;4990446;28;19914;-85
2023/08/19 06:43:06;;;;;;;;;;;22.80;87.10;;;;;;4977795;28;20020;-85
2023/08/19 06:45:33;;;;;;;;;;;22.90;87.70;;;;;;4987285;28;19964;-84
2023/08/19 06:47:59;;;;;;;;;;;22.90;88.00;;;;;;4978390;28;19964;-85
2023/08/19 06:50:24;;;;;;;;;;;23.00;88.20;;;;;;4986111;28;19914;-84
2023/08/19 06:52:50;;;;;;;;;;;23.00;88.10;;;;;;4982247;28;19914;-84
2023/08/19 06:55:16;;;;;;;;;;;23.10;87.80;;;;;;4987039;28;19917;-85
2023/08/19 06:57:49;;;;;;;;;;;23.10;87.70;;;;;;4987065;28;19917;-84
2023/08/19 07:00:15;;;;;;;;;;;23.20;87.70;;;;;;4982956;28;20280;-84
2023/08/19 07:02:40;;;;;;;;;;;23.30;87.80;;;;;;4986108;28;20078;-84
2023/08/19 07:05:10;;;;;;;;;;;23.40;87.80;;;;;;4985819;28;20492;-84
2023/08/19 07:07:36;;;;;;;;;;;23.50;87.80;;;;;;5004037;28;19921;-84
2023/08/19 07:10:05;;;;;;;;;;;23.60;87.50;;;;;;4987166;28;19937;-84
2023/08/19 07:12:31;;;;;;;;;;;23.70;84.60;;;;;;4991175;28;20355;-85
2023/08/19 07:14:57;;;;;;;;;;;23.80;83.10;;;;;;4979847;28;19990;-84
2023/08/19 07:17:24;;;;;;;;;;;24.00;81.80;;;;;;4988665;28;19949;-85
2023/08/19 07:19:51;;;;;;;;;;;24.00;81.50;;;;;;4984068;28;20006;-85
2023/08/19 07:22:17;;;;;;;;;;;24.10;81.00;;;;;;4992529;28;19913;-86
2023/08/19 07:24:43;;;;;;;;;;;24.20;78.70;;;;;;4993932;28;19910;-84
2023/08/19 07:27:09;;;;;;;;;;;24.30;76.90;;;;;;4998223;28;19918;-84
2023/08/19 07:29:37;;;;;;;;;;;24.30;77.00;;;;;;4993465;28;19914;-84
2023/08/19 07:32:03;;;;;;;;;;;24.40;77.50;;;;;;4994615;28;19958;-84
2023/08/19 07:34:34;;;;;;;;;;;24.50;75.00;;;;;;4990027;28;19913;-88
2023/08/19 07:37:00;;;;;;;;;;;24.60;74.70;;;;;;4996836;28;19994;-86
2023/08/19 07:39:26;;;;;;;;;;;24.60;76.00;;;;;;5002479;28;20426;-85
2023/08/19 07:41:52;;;;;;;;;;;24.70;76.30;;;;;;4977273;28;19910;-85
2023/08/19 07:44:23;;;;;;;;;;;24.60;76.60;;;;;;4985520;28;19922;-85
2023/08/19 07:46:48;;;;;;;;;;;24.60;76.50;;;;;;4988073;28;19909;-84
2023/08/19 07:49:14;;;;;;;;;;;24.70;75.80;;;;;;4984466;28;19914;-85
2023/08/19 07:51:39;;;;;;;;;;;24.70;76.30;;;;;;4985460;28;19910;-84
2023/08/19 07:54:05;;;;;;;;;;;24.80;76.10;;;;;;4985830;28;20013;-85
2023/08/19 07:56:30;;;;;;;;;;;24.90;75.60;;;;;;4976240;28;19967;-85
2023/08/19 07:58:56;;;;;;;;;;;25.10;74.30;;;;;;4989540;28;19910;-85
2023/08/19 08:01:21;;;;;;;;;;;24.90;75.70;;;;;;4988010;28;19918;-85
2023/08/19 08:03:48;;;;;;;;;;;25.00;74.60;;;;;;4982132;28;19980;-85
2023/08/19 08:06:13;;;;;;;;;;;25.00;75.40;;;;;;4985381;28;19918;-85
2023/08/19 08:08:39;;;;;;;;;;;25.00;75.00;;;;;;5009499;28;20371;-86
2023/08/19 08:11:07;;;;;;;;;;;25.00;74.80;;;;;;5054823;23;20500;-86
2023/08/19 08:13:32;;;;;;;;;;;24.90;74.70;;;;;;4988068;28;19914;-86
2023/08/19 08:15:58;;;;;;;;;;;24.90;75.00;;;;;;4986961;28;19914;-86
2023/08/19 08:18:24;;;;;;;;;;;24.80;75.20;;;;;;4998013;28;19920;-86
2023/08/19 08:20:49;;;;;;;;;;;24.90;75.70;;;;;;4997288;28;19913;-86
2023/08/19 08:23:15;;;;;;;;;;;24.80;74.50;;;;;;4991184;28;20011;-86
2023/08/19 08:25:40;;;;;;;;;;;24.80;74.60;;;;;;4990424;28;19917;-86
2023/08/19 08:28:06;;;;;;;;;;;24.90;73.20;;;;;;4988693;28;19924;-86
2023/08/19 08:30:32;;;;;;;;;;;24.90;74.90;;;;;;4996326;28;19914;-86
2023/08/19 08:32:58;;;;;;;;;;;24.90;76.10;;;;;;4992801;28;19981;-88
2023/08/19 08:35:23;;;;;;;;;;;24.90;76.50;;;;;;4991721;28;19914;-87
2023/08/19 08:37:49;;;;;;;;;;;25.00;75.70;;;;;;4992496;28;19921;-85
2023/08/19 08:40:15;;;;;;;;;;;24.90;76.10;;;;;;4992981;28;19949;-87
2023/08/19 08:42:40;;;;;;;;;;;25.00;75.20;;;;;;4986749;28;20385;-87
2023/08/19 08:45:09;;;;;;;;;;;25.00;75.50;;;;;;4990653;28;19944;-87
2023/08/19 08:47:35;;;;;;;;;;;25.10;74.90;;;;;;4983749;28;19945;-87
2023/08/19 08:50:01;;;;;;;;;;;25.10;75.30;;;;;;4989828;28;19913;-87
2023/08/19 08:52:35;;;;;;;;;;;25.20;75.70;;;;;;4996117;28;20401;-88
2023/08/19 08:55:02;;;;;;;;;;;25.20;75.70;;;;;;4988594;28;19957;-87
2023/08/19 08:57:32;;;;;;;;;;;25.30;75.10;;;;;;4982655;28;19940;-88
2023/08/19 09:00:16;;;;;;;;;;;;;;;;;;;;;
2023/08/19 09:02:43;;;;;;;;;;;25.30;74.90;;;;;;4989950;28;19922;-88
2023/08/19 09:05:09;;;;;;;;;;;25.30;75.60;;;;;;4985675;28;19920;-88
2023/08/19 09:07:39;;;;;;;;;;;25.30;76.20;;;;;;4986222;28;19920;-88
2023/08/19 09:10:27;;;;;;;;;;;25.50;75.50;;;;;;4986885;28;19969;-88
2023/08/19 09:13:00;;;;;;;;;;;25.60;75.20;;;;;;4985359;28;20004;-87
2023/08/19 09:15:29;;;;;;;;;;;26.10;72.50;;;;;;4990723;28;19941;-87
2023/08/19 09:17:58;;;;;;;;;;;26.20;73.90;;;;;;4992100;28;19914;-87
2023/08/19 09:20:24;;;;;;;;;;;26.60;71.10;;;;;;4985329;28;19914;-87
2023/08/19 09:22:50;;;;;;;;;;;26.80;70.20;;;;;;4991709;28;20301;-87
2023/08/19 09:25:16;;;;;;;;;;;26.90;70.50;;;;;;4986258;28;19921;-87
2023/08/19 09:27:42;;;;;;;;;;;27.00;68.40;;;;;;4986260;28;19929;-88
2023/08/19 09:30:07;;;;;;;;;;;27.10;68.00;;;;;;4980435;28;20041;-88
2023/08/19 09:32:35;;;;;;;;;;;27.30;67.50;;;;;;4983578;28;19914;-88
2023/08/19 09:35:03;;;;;;;;;;;27.40;69.00;;;;;;4987610;28;19914;-87
2023/08/19 09:37:32;;;;;;;;;;;27.50;67.40;;;;;;4989651;28;19914;-86
2023/08/19 09:39:58;;;;;;;;;;;27.50;67.80;;;;;;4990299;28;19996;-87
2023/08/19 09:42:26;;;;;;;;;;;27.50;68.70;;;;;;4995922;28;19917;-87
2023/08/19 09:44:58;;;;;;;;;;;27.60;67.70;;;;;;4992643;28;19968;-88
2023/08/19 09:47:23;;;;;;;;;;;27.60;69.30;;;;;;4988036;28;19921;-88
2023/08/19 09:49:50;;;;;;;;;;;27.60;68.40;;;;;;4988005;28;19913;-88
2023/08/19 09:52:18;;;;;;;;;;;27.70;68.60;;;;;;4980757;28;19937;-88
2023/08/19 09:54:49;;;;;;;;;;;27.80;68.20;;;;;;4988307;28;19921;-87
2023/08/19 09:57:15;;;;;;;;;;;27.80;69.90;;;;;;4988681;28;20484;-88
2023/08/19 09:59:40;;;;;;;;;;;27.80;69.90;;;;;;4987222;28;20374;-86
2023/08/19 10:02:09;;;;;;;;;;;28.00;68.60;;;;;;4987272;28;19937;-86
2023/08/19 10:04:35;;;;;;;;;;;27.90;67.90;;;;;;4984492;28;20408;-86
2023/08/19 10:07:02;;;;;;;;;;;28.10;67.50;;;;;;4985044;28;19913;-85
2023/08/19 10:09:28;;;;;;;;;;;28.30;67.20;;;;;;4989986;28;20005;-84
2023/08/19 10:11:55;;;;;;;;;;;28.40;66.10;;;;;;4982735;28;20016;-86
2023/08/19 10:14:26;;;;;;;;;;;28.50;63.80;;;;;;4990009;28;19922;-85
2023/08/19 10:16:52;;;;;;;;;;;28.60;63.40;;;;;;4986996;28;20012;-86
2023/08/19 10:19:19;;;;;;;;;;;28.80;62.60;;;;;;4989660;28;19968;-86
2023/08/19 10:21:45;;;;;;;;;;;28.80;63.90;;;;;;4988681;28;19918;-85
2023/08/19 10:24:15;;;;;;;;;;;28.80;63.80;;;;;;4990704;28;19922;-85
2023/08/19 10:26:45;;;;;;;;;;;28.90;63.50;;;;;;4995002;28;19925;-86
2023/08/19 10:29:10;;;;;;;;;;;28.90;62.80;;;;;;4996177;28;20381;-85
2023/08/19 10:31:36;;;;;;;;;;;28.90;62.80;;;;;;4988767;28;19921;-87
2023/08/19 10:34:37;;;;;;;;;;;28.90;63.10;;;;;;4984314;28;19924;-86
2023/08/19 10:37:08;;;;;;;;;;;28.80;64.20;;;;;;4925660;29;20014;-86
2023/08/19 10:39:35;;;;;;;;;;;28.70;64.40;;;;;;4999179;28;20002;-85
2023/08/19 10:42:00;;;;;;;;;;;28.70;63.30;;;;;;4995822;28;19982;-85
2023/08/19 10:44:33;;;;;;;;;;;28.90;62.50;;;;;;5006423;28;19919;-89
2023/08/19 10:47:09;;;;;;;;;;;29.00;62.80;;;;;;5012182;28;19912;-85
2023/08/19 10:49:34;;;;;;;;;;;29.10;62.40;;;;;;5003826;28;19960;-87
2023/08/19 10:52:01;;;;;;;;;;;29.20;61.80;;;;;;4997458;28;19917;-87
2023/08/19 10:54:30;;;;;;;;;;;29.20;61.00;;;;;;4987988;28;20297;-85
2023/08/19 10:57:12;;;;;;;;;;;29.30;61.50;;;;;;4987271;28;19952;-86
2023/08/19 10:59:39;;;;;;;;;;;29.40;60.90;;;;;;4988818;28;19932;-85
2023/08/19 11:02:05;;;;;;;;;;;29.50;59.80;;;;;;4986537;28;20001;-84
2023/08/19 11:04:32;;;;;;;;;;;29.70;59.10;;;;;;4989270;28;19919;-85
2023/08/19 11:06:57;;;;;;;;;;;29.80;59.70;;;;;;4982408;28;20429;-85
2023/08/19 11:09:24;;;;;;;;;;;29.80;58.60;;;;;;4981402;28;19917;-85
2023/08/19 11:11:50;;;;;;;;;;;30.00;59.10;;;;;;4984380;28;19932;-86
2023/08/19 11:14:18;;;;;;;;;;;30.00;58.50;;;;;;4982844;28;20262;-84
2023/08/19 11:16:48;;;;;;;;;;;30.00;59.50;;;;;;4986927;28;19914;-86
2023/08/19 11:19:13;;;;;;;;;;;30.00;59.40;;;;;;4998392;28;19984;-86
2023/08/19 11:21:42;;;;;;;;;;;30.00;58.50;;;;;;4993157;28;20005;-86
2023/08/19 11:24:08;;;;;;;;;;;30.20;58.50;;;;;;5004078;28;19921;-86
2023/08/19 11:26:41;;;;;;;;;;;30.30;59.20;;;;;;4978648;28;19922;-85
2023/08/19 11:29:09;;;;;;;;;;;30.30;59.00;;;;;;4985267;28;20369;-87
2023/08/19 11:31:35;;;;;;;;;;;30.30;58.30;;;;;;4979506;28;19914;-88
2023/08/19 11:34:08;;;;;;;;;;;30.20;58.70;;;;;;4989979;28;19960;-87
2023/08/19 11:36:34;;;;;;;;;;;30.10;59.10;;;;;;4984791;28;19945;-86
2023/08/19 11:39:00;;;;;;;;;;;30.20;59.30;;;;;;4981999;28;19922;-87
2023/08/19 11:41:25;;;;;;;;;;;30.30;58.50;;;;;;4978351;28;20004;-87
2023/08/19 11:43:53;;;;;;;;;;;30.20;59.40;;;;;;4990095;28;20340;-88
2023/08/19 11:46:19;;;;;;;;;;;30.20;59.60;;;;;;4986225;28;19922;-88
2023/08/19 11:48:45;;;;;;;;;;;30.00;60.60;;;;;;4987338;28;19914;-87
2023/08/19 11:51:11;;;;;;;;;;;30.20;60.30;;;;;;4987489;28;19928;-87
2023/08/19 11:53:37;;;;;;;;;;;30.20;59.60;;;;;;4988071;28;19918;-86
2023/08/19 11:56:03;;;;;;;;;;;30.10;59.70;;;;;;4991262;28;19914;-88
2023/08/19 11:58:38;;;;;;;;;;;30.00;60.10;;;;;;4992157;28;19920;-87
2023/08/19 12:01:04;;;;;;;;;;;29.90;61.30;;;;;;4989640;28;19917;-88
2023/08/19 12:03:30;;;;;;;;;;;29.50;61.00;;;;;;4993202;28;19910;-86
2023/08/19 12:05:56;;;;;;;;;;;29.40;62.00;;;;;;4993326;28;19945;-87
2023/08/19 12:08:31;;;;;;;;;;;29.20;62.20;;;;;;4987900;28;19933;-88
2023/08/19 12:10:57;;;;;;;;;;;29.00;63.80;;;;;;4994582;28;19914;-87
2023/08/19 12:13:23;;;;;;;;;;;28.80;65.30;;;;;;4992976;28;19917;-87
2023/08/19 12:15:49;;;;;;;;;;;28.70;65.80;;;;;;4994112;28;19913;-90
2023/08/19 12:18:18;;;;;;;;;;;28.60;68.10;;;;;;4992469;28;19921;-87
2023/08/19 12:20:47;;;;;;;;;;;28.40;69.60;;;;;;5000050;28;20540;-85
2023/08/19 12:23:13;;;;;;;;;;;28.30;70.60;;;;;;5004619;28;19922;-87
2023/08/19 12:25:47;;;;;;;;;;;28.10;72.60;;;;;;5001796;28;19988;-83
2023/08/19 12:28:12;;;;;;;;;;;28.20;70.60;;;;;;4999499;28;19929;-86
2023/08/19 12:30:37;;;;;;;;;;;28.30;71.20;;;;;;5000845;28;19918;-82
2023/08/19 12:33:03;;;;;;;;;;;28.40;70.10;;;;;;4996695;28;20008;-88
2023/08/19 12:35:29;;;;;;;;;;;28.50;69.80;;;;;;4995629;28;20388;-84
2023/08/19 12:37:56;;;;;;;;;;;28.70;68.80;;;;;;4997391;28;19914;-80
2023/08/19 12:40:21;;;;;;;;;;;28.90;67.40;;;;;;4994522;28;19921;-83
2023/08/19 12:42:47;;;;;;;;;;;29.00;67.00;;;;;;5003566;28;19994;-87
2023/08/19 12:45:12;;;;;;;;;;;29.00;68.30;;;;;;4994849;28;21479;-83
2023/08/19 12:47:38;;;;;;;;;;;29.00;67.70;;;;;;5002021;28;19918;-83
2023/08/19 12:50:04;;;;;;;;;;;29.10;66.70;;;;;;5002453;28;19914;-80
2023/08/19 12:52:30;;;;;;;;;;;29.10;67.50;;;;;;5002844;28;20301;-80
2023/08/19 12:54:55;;;;;;;;;;;29.00;67.70;;;;;;5006212;28;19941;-85
2023/08/19 12:57:21;;;;;;;;;;;29.00;68.00;;;;;;5001377;28;19936;-80
2023/08/19 12:59:46;;;;;;;;;;;29.10;67.60;;;;;;4994957;28;19932;-86
2023/08/19 13:02:12;;;;;;;;;;;29.10;67.80;;;;;;5008190;28;19917;-86
2023/08/19 13:04:37;;;;;;;;;;;29.00;68.50;;;;;;5006892;28;19922;-86
2023/08/19 13:07:03;;;;;;;;;;;29.00;69.10;;;;;;4993404;28;19913;-85
2023/08/19 13:09:28;;;;;;;;;;;29.00;68.80;;;;;;4998990;28;19914;-85
2023/08/19 13:11:54;;;;;;;;;;;28.90;69.40;;;;;;5003534;28;20423;-86
2023/08/19 13:14:19;;;;;;;;;;;28.90;69.10;;;;;;4996853;28;19937;-86
2023/08/19 13:16:45;;;;;;;;;;;28.90;69.50;;;;;;4988577;28;19918;-84
2023/08/19 13:19:10;;;;;;;;;;;28.90;69.60;;;;;;4987658;28;19922;-86
2023/08/19 13:21:36;;;;;;;;;;;28.80;70.00;;;;;;4997031;28;19966;-84
2023/08/19 13:24:01;;;;;;;;;;;28.80;70.00;;;;;;4996357;28;19940;-86
2023/08/19 13:26:27;;;;;;;;;;;28.80;68.40;;;;;;4989690;28;19957;-85
2023/08/19 13:28:52;;;;;;;;;;;28.70;69.20;;;;;;4993548;28;19921;-84
2023/08/19 13:31:18;;;;;;;;;;;28.60;69.30;;;;;;4991376;28;19986;-85
2023/08/19 13:33:43;;;;;;;;;;;28.50;69.90;;;;;;4995461;28;20334;-86
2023/08/19 13:36:09;;;;;;;;;;;28.40;70.50;;;;;;4989509;28;19914;-83
2023/08/19 13:38:34;;;;;;;;;;;28.30;71.20;;;;;;4990300;28;19968;-85
2023/08/19 13:41:00;;;;;;;;;;;28.20;71.40;;;;;;4992352;28;19921;-84
2023/08/19 13:43:25;;;;;;;;;;;28.10;71.90;;;;;;4989781;28;19953;-84
2023/08/19 13:45:51;;;;;;;;;;;28.20;72.30;;;;;;4994377;28;19910;-85
2023/08/19 13:48:16;;;;;;;;;;;28.20;71.80;;;;;;5003874;28;19916;-86
2023/08/19 13:50:46;;;;;;;;;;;28.10;72.10;;;;;;5011973;28;19941;-85
2023/08/19 13:53:12;;;;;;;;;;;28.00;72.50;;;;;;5012724;28;19912;-86
2023/08/19 13:55:37;;;;;;;;;;;28.00;72.50;;;;;;5005790;28;19918;-87
2023/08/19 13:58:03;;;;;;;;;;;27.70;73.70;;;;;;5003076;28;19914;-85
2023/08/19 14:00:29;;;;;;;;;;;27.60;75.80;;;;;;4996292;28;19914;-85
2023/08/19 14:02:55;;;;;;;;;;;27.60;77.30;;;;;;4995338;28;19914;-85
2023/08/19 14:05:21;;;;;;;;;;;27.50;77.90;;;;;;4988120;28;20009;-86
2023/08/19 14:07:47;;;;;;;;;;;27.20;78.10;;;;;;4995764;28;19913;-84
2023/08/19 14:10:13;;;;;;;;;;;27.10;78.40;;;;;;4993391;28;19980;-85
2023/08/19 14:12:39;;;;;;;;;;;27.10;78.20;;;;;;4966272;23;1786523;-85
2023/08/19 14:15:05;;;;;;;;;;;27.00;78.60;;;;;;4989814;28;20001;-85